sensor_id;sensor_type;location;lat;lon;timestamp;P1;durP1;ratioP1;P2;durP2;ratioP2
73919;SDS011;62266;53.348;-1.496;2023-04-25T00:01:44;6.93;;;1.63;;
73919;SDS011;62266;53.348;-1.496;2023-04-25T00:04:28;8.80;;;1.80;;
73919;SDS011;62266;53.348;-1.496;2023-04-25T00:07:13;7.07;;;1.60;;
73919;SDS011;62266;53.348;-1.496;2023-04-25T00:09:57;4.43;;;1.35;;
73919;SDS011;62266;53.348;-1.496;2023-04-25T00:12:41;6.10;;;1.83;;
73919;SDS011;62266;53.348;-1.496;2023-04-25T00:15:25;5.82;;;1.73;;
73919;SDS011;62266;53.348;-1.496;2023-04-25T00:18:09;10.77;;;2.93;;
73919;SDS011;62266;53.348;-1.496;2023-04-25T00:20:55;5.20;;;1.60;;
73919;SDS011;62266;53.348;-1.496;2023-04-25T00:23:39;10.48;;;2.50;;
73919;SDS011;62266;53.348;-1.496;2023-04-25T00:26:23;9.52;;;1.50;;
73919;SDS011;62266;53.348;-1.496;2023-04-25T00:29:08;5.95;;;1.80;;
73919;SDS011;62266;53.348;-1.496;2023-04-25T00:31:52;9.83;;;2.33;;
73919;SDS011;62266;53.348;-1.496;2023-04-25T00:34:36;6.10;;;1.70;;
73919;SDS011;62266;53.348;-1.496;2023-04-25T00:37:20;5.32;;;1.45;;
73919;SDS011;62266;53.348;-1.496;2023-04-25T00:40:05;8.95;;;1.85;;
73919;SDS011;62266;53.348;-1.496;2023-04-25T00:42:51;6.22;;;1.67;;
73919;SDS011;62266;53.348;-1.496;2023-04-25T00:45:35;6.70;;;1.45;;
73919;SDS011;62266;53.348;-1.496;2023-04-25T00:48:22;4.37;;;1.50;;
73919;SDS011;62266;53.348;-1.496;2023-04-25T00:51:06;5.85;;;1.42;;
73919;SDS011;62266;53.348;-1.496;2023-04-25T00:53:51;6.60;;;1.80;;
73919;SDS011;62266;53.348;-1.496;2023-04-25T00:56:36;5.05;;;2.00;;
73919;SDS011;62266;53.348;-1.496;2023-04-25T00:59:20;7.97;;;2.35;;
73919;SDS011;62266;53.348;-1.496;2023-04-25T01:02:04;8.90;;;2.10;;
73919;SDS011;62266;53.348;-1.496;2023-04-25T01:04:49;5.78;;;1.42;;
73919;SDS011;62266;53.348;-1.496;2023-04-25T01:07:33;9.80;;;1.77;;
73919;SDS011;62266;53.348;-1.496;2023-04-25T01:10:17;5.70;;;1.30;;
73919;SDS011;62266;53.348;-1.496;2023-04-25T01:13:01;6.32;;;1.80;;
73919;SDS011;62266;53.348;-1.496;2023-04-25T01:15:46;5.83;;;1.90;;
73919;SDS011;62266;53.348;-1.496;2023-04-25T01:18:30;6.00;;;2.15;;
73919;SDS011;62266;53.348;-1.496;2023-04-25T01:21:15;8.25;;;1.95;;
73919;SDS011;62266;53.348;-1.496;2023-04-25T01:23:59;4.18;;;1.13;;
73919;SDS011;62266;53.348;-1.496;2023-04-25T01:26:43;6.50;;;1.40;;
73919;SDS011;62266;53.348;-1.496;2023-04-25T01:29:33;4.23;;;1.37;;
73919;SDS011;62266;53.348;-1.496;2023-04-25T01:32:18;7.78;;;1.88;;
73919;SDS011;62266;53.348;-1.496;2023-04-25T01:35:04;4.60;;;1.35;;
73919;SDS011;62266;53.348;-1.496;2023-04-25T01:37:52;4.18;;;1.02;;
73919;SDS011;62266;53.348;-1.496;2023-04-25T01:40:37;6.47;;;1.55;;
73919;SDS011;62266;53.348;-1.496;2023-04-25T01:43:23;8.33;;;2.10;;
73919;SDS011;62266;53.348;-1.496;2023-04-25T01:46:07;4.93;;;1.13;;
73919;SDS011;62266;53.348;-1.496;2023-04-25T01:48:51;3.78;;;1.20;;
73919;SDS011;62266;53.348;-1.496;2023-04-25T01:51:35;4.45;;;1.50;;
73919;SDS011;62266;53.348;-1.496;2023-04-25T01:54:19;6.95;;;1.42;;
73919;SDS011;62266;53.348;-1.496;2023-04-25T01:57:04;2.67;;;1.10;;
73919;SDS011;62266;53.348;-1.496;2023-04-25T01:59:48;5.70;;;1.23;;
73919;SDS011;62266;53.348;-1.496;2023-04-25T02:02:33;4.32;;;1.20;;
73919;SDS011;62266;53.348;-1.496;2023-04-25T02:05:17;4.93;;;1.35;;
73919;SDS011;62266;53.348;-1.496;2023-04-25T02:08:01;4.78;;;1.08;;
73919;SDS011;62266;53.348;-1.496;2023-04-25T02:10:45;3.65;;;1.20;;
73919;SDS011;62266;53.348;-1.496;2023-04-25T02:13:29;4.37;;;1.27;;
73919;SDS011;62266;53.348;-1.496;2023-04-25T02:16:13;4.35;;;1.27;;
73919;SDS011;62266;53.348;-1.496;2023-04-25T02:18:58;5.32;;;1.33;;
73919;SDS011;62266;53.348;-1.496;2023-04-25T02:21:42;7.07;;;1.30;;
73919;SDS011;62266;53.348;-1.496;2023-04-25T02:24:27;5.22;;;1.38;;
73919;SDS011;62266;53.348;-1.496;2023-04-25T02:27:11;5.80;;;1.00;;
73919;SDS011;62266;53.348;-1.496;2023-04-25T02:29:55;4.27;;;1.10;;
73919;SDS011;62266;53.348;-1.496;2023-04-25T02:32:39;5.13;;;1.20;;
73919;SDS011;62266;53.348;-1.496;2023-04-25T02:35:23;4.97;;;1.50;;
73919;SDS011;62266;53.348;-1.496;2023-04-25T02:38:07;3.78;;;1.30;;
73919;SDS011;62266;53.348;-1.496;2023-04-25T02:40:51;5.57;;;1.40;;
73919;SDS011;62266;53.348;-1.496;2023-04-25T02:43:35;4.93;;;1.00;;
73919;SDS011;62266;53.348;-1.496;2023-04-25T02:46:19;4.00;;;0.97;;
73919;SDS011;62266;53.348;-1.496;2023-04-25T02:49:04;4.25;;;1.17;;
73919;SDS011;62266;53.348;-1.496;2023-04-25T02:51:49;5.28;;;1.48;;
73919;SDS011;62266;53.348;-1.496;2023-04-25T02:54:33;5.60;;;1.20;;
73919;SDS011;62266;53.348;-1.496;2023-04-25T02:57:17;4.93;;;1.10;;
73919;SDS011;62266;53.348;-1.496;2023-04-25T03:00:01;3.97;;;1.20;;
73919;SDS011;62266;53.348;-1.496;2023-04-25T03:02:46;6.75;;;1.27;;
73919;SDS011;62266;53.348;-1.496;2023-04-25T03:05:30;6.00;;;1.30;;
73919;SDS011;62266;53.348;-1.496;2023-04-25T03:08:14;4.07;;;1.33;;
73919;SDS011;62266;53.348;-1.496;2023-04-25T03:10:59;3.15;;;1.08;;
73919;SDS011;62266;53.348;-1.496;2023-04-25T03:13:43;4.00;;;1.10;;
73919;SDS011;62266;53.348;-1.496;2023-04-25T03:16:27;3.20;;;1.20;;
73919;SDS011;62266;53.348;-1.496;2023-04-25T03:19:10;10.88;;;1.90;;
73919;SDS011;62266;53.348;-1.496;2023-04-25T03:21:55;5.35;;;1.40;;
73919;SDS011;62266;53.348;-1.496;2023-04-25T03:24:39;4.40;;;1.30;;
73919;SDS011;62266;53.348;-1.496;2023-04-25T03:27:24;2.85;;;0.85;;
73919;SDS011;62266;53.348;-1.496;2023-04-25T03:30:08;3.77;;;1.13;;
73919;SDS011;62266;53.348;-1.496;2023-04-25T03:32:52;5.93;;;0.90;;
73919;SDS011;62266;53.348;-1.496;2023-04-25T03:35:36;6.22;;;1.30;;
73919;SDS011;62266;53.348;-1.496;2023-04-25T03:38:20;4.45;;;1.08;;
73919;SDS011;62266;53.348;-1.496;2023-04-25T03:41:05;3.70;;;1.95;;
73919;SDS011;62266;53.348;-1.496;2023-04-25T03:43:49;6.30;;;1.00;;
73919;SDS011;62266;53.348;-1.496;2023-04-25T03:46:33;9.30;;;1.75;;
73919;SDS011;62266;53.348;-1.496;2023-04-25T03:49:17;8.95;;;1.27;;
73919;SDS011;62266;53.348;-1.496;2023-04-25T03:52:01;5.75;;;1.17;;
73919;SDS011;62266;53.348;-1.496;2023-04-25T03:54:46;5.05;;;1.25;;
73919;SDS011;62266;53.348;-1.496;2023-04-25T03:57:30;8.03;;;1.00;;
73919;SDS011;62266;53.348;-1.496;2023-04-25T04:00:14;7.57;;;1.40;;
73919;SDS011;62266;53.348;-1.496;2023-04-25T04:02:58;2.22;;;1.05;;
73919;SDS011;62266;53.348;-1.496;2023-04-25T04:05:42;3.25;;;1.20;;
73919;SDS011;62266;53.348;-1.496;2023-04-25T04:08:26;4.72;;;0.93;;
73919;SDS011;62266;53.348;-1.496;2023-04-25T04:11:10;4.85;;;1.20;;
73919;SDS011;62266;53.348;-1.496;2023-04-25T04:13:54;3.53;;;1.00;;
73919;SDS011;62266;53.348;-1.496;2023-04-25T04:16:38;3.58;;;1.30;;
73919;SDS011;62266;53.348;-1.496;2023-04-25T04:19:22;5.05;;;1.50;;
73919;SDS011;62266;53.348;-1.496;2023-04-25T04:22:07;5.15;;;0.90;;
73919;SDS011;62266;53.348;-1.496;2023-04-25T04:24:51;5.50;;;1.27;;
73919;SDS011;62266;53.348;-1.496;2023-04-25T04:27:36;6.80;;;1.20;;
73919;SDS011;62266;53.348;-1.496;2023-04-25T04:30:24;3.70;;;1.10;;
73919;SDS011;62266;53.348;-1.496;2023-04-25T04:33:09;4.20;;;1.42;;
73919;SDS011;62266;53.348;-1.496;2023-04-25T04:35:53;5.78;;;1.13;;
73919;SDS011;62266;53.348;-1.496;2023-04-25T04:38:39;4.80;;;1.30;;
73919;SDS011;62266;53.348;-1.496;2023-04-25T04:41:26;5.93;;;1.30;;
73919;SDS011;62266;53.348;-1.496;2023-04-25T04:44:10;4.37;;;0.97;;
73919;SDS011;62266;53.348;-1.496;2023-04-25T04:46:54;5.13;;;1.30;;
73919;SDS011;62266;53.348;-1.496;2023-04-25T04:49:38;6.82;;;1.30;;
73919;SDS011;62266;53.348;-1.496;2023-04-25T04:52:23;4.22;;;0.95;;
73919;SDS011;62266;53.348;-1.496;2023-04-25T04:55:07;6.93;;;1.70;;
73919;SDS011;62266;53.348;-1.496;2023-04-25T04:57:52;4.83;;;1.20;;
73919;SDS011;62266;53.348;-1.496;2023-04-25T05:00:36;5.43;;;1.00;;
73919;SDS011;62266;53.348;-1.496;2023-04-25T05:03:21;4.68;;;1.65;;
73919;SDS011;62266;53.348;-1.496;2023-04-25T05:06:05;5.22;;;1.40;;
73919;SDS011;62266;53.348;-1.496;2023-04-25T05:08:49;3.92;;;1.30;;
73919;SDS011;62266;53.348;-1.496;2023-04-25T05:11:34;2.87;;;1.10;;
73919;SDS011;62266;53.348;-1.496;2023-04-25T05:14:18;3.33;;;0.97;;
73919;SDS011;62266;53.348;-1.496;2023-04-25T05:17:02;5.18;;;1.38;;
73919;SDS011;62266;53.348;-1.496;2023-04-25T05:19:48;3.83;;;1.13;;
73919;SDS011;62266;53.348;-1.496;2023-04-25T05:22:32;5.00;;;1.05;;
73919;SDS011;62266;53.348;-1.496;2023-04-25T05:25:16;5.68;;;1.65;;
73919;SDS011;62266;53.348;-1.496;2023-04-25T05:28:00;1.73;;;0.90;;
73919;SDS011;62266;53.348;-1.496;2023-04-25T05:30:44;2.95;;;1.20;;
73919;SDS011;62266;53.348;-1.496;2023-04-25T05:33:29;4.53;;;1.10;;
73919;SDS011;62266;53.348;-1.496;2023-04-25T05:36:13;4.15;;;1.20;;
73919;SDS011;62266;53.348;-1.496;2023-04-25T05:38:58;3.88;;;1.13;;
73919;SDS011;62266;53.348;-1.496;2023-04-25T05:41:43;3.63;;;1.00;;
73919;SDS011;62266;53.348;-1.496;2023-04-25T05:44:27;9.70;;;1.07;;
73919;SDS011;62266;53.348;-1.496;2023-04-25T05:47:12;4.68;;;1.48;;
73919;SDS011;62266;53.348;-1.496;2023-04-25T05:49:56;8.23;;;1.20;;
73919;SDS011;62266;53.348;-1.496;2023-04-25T05:52:39;8.85;;;1.50;;
73919;SDS011;62266;53.348;-1.496;2023-04-25T05:55:24;6.25;;;1.63;;
73919;SDS011;62266;53.348;-1.496;2023-04-25T05:58:08;4.33;;;1.20;;
73919;SDS011;62266;53.348;-1.496;2023-04-25T06:00:52;3.22;;;0.90;;
73919;SDS011;62266;53.348;-1.496;2023-04-25T06:03:36;2.65;;;1.17;;
73919;SDS011;62266;53.348;-1.496;2023-04-25T06:06:21;3.40;;;1.00;;
73919;SDS011;62266;53.348;-1.496;2023-04-25T06:09:05;4.85;;;1.15;;
73919;SDS011;62266;53.348;-1.496;2023-04-25T06:11:49;3.33;;;1.00;;
73919;SDS011;62266;53.348;-1.496;2023-04-25T06:14:34;2.22;;;1.00;;
73919;SDS011;62266;53.348;-1.496;2023-04-25T06:17:18;6.55;;;1.33;;
73919;SDS011;62266;53.348;-1.496;2023-04-25T06:20:02;5.20;;;1.27;;
73919;SDS011;62266;53.348;-1.496;2023-04-25T06:22:47;4.43;;;1.00;;
73919;SDS011;62266;53.348;-1.496;2023-04-25T06:25:32;3.77;;;0.70;;
73919;SDS011;62266;53.348;-1.496;2023-04-25T06:28:16;5.53;;;1.20;;
73919;SDS011;62266;53.348;-1.496;2023-04-25T06:31:00;4.25;;;1.02;;
73919;SDS011;62266;53.348;-1.496;2023-04-25T06:33:44;1.65;;;0.90;;
73919;SDS011;62266;53.348;-1.496;2023-04-25T06:36:28;3.63;;;0.80;;
73919;SDS011;62266;53.348;-1.496;2023-04-25T06:39:12;4.63;;;0.93;;
73919;SDS011;62266;53.348;-1.496;2023-04-25T06:41:56;3.90;;;1.00;;
73919;SDS011;62266;53.348;-1.496;2023-04-25T06:44:40;7.72;;;0.80;;
73919;SDS011;62266;53.348;-1.496;2023-04-25T06:47:26;3.63;;;1.00;;
73919;SDS011;62266;53.348;-1.496;2023-04-25T06:50:10;4.65;;;0.90;;
73919;SDS011;62266;53.348;-1.496;2023-04-25T06:52:55;5.20;;;1.10;;
73919;SDS011;62266;53.348;-1.496;2023-04-25T06:55:39;3.78;;;1.15;;
73919;SDS011;62266;53.348;-1.496;2023-04-25T06:58:23;5.53;;;1.20;;
73919;SDS011;62266;53.348;-1.496;2023-04-25T07:01:07;2.90;;;1.00;;
73919;SDS011;62266;53.348;-1.496;2023-04-25T07:03:50;2.97;;;0.88;;
73919;SDS011;62266;53.348;-1.496;2023-04-25T07:06:34;3.23;;;1.20;;
73919;SDS011;62266;53.348;-1.496;2023-04-25T07:09:21;4.38;;;1.02;;
73919;SDS011;62266;53.348;-1.496;2023-04-25T07:12:06;1.65;;;0.77;;
73919;SDS011;62266;53.348;-1.496;2023-04-25T07:14:49;4.63;;;1.00;;
73919;SDS011;62266;53.348;-1.496;2023-04-25T07:17:33;7.28;;;1.20;;
73919;SDS011;62266;53.348;-1.496;2023-04-25T07:20:17;5.30;;;1.00;;
73919;SDS011;62266;53.348;-1.496;2023-04-25T07:23:01;5.75;;;0.80;;
73919;SDS011;62266;53.348;-1.496;2023-04-25T07:25:46;3.22;;;0.95;;
73919;SDS011;62266;53.348;-1.496;2023-04-25T07:28:30;5.07;;;1.48;;
73919;SDS011;62266;53.348;-1.496;2023-04-25T07:31:14;3.85;;;1.08;;
73919;SDS011;62266;53.348;-1.496;2023-04-25T07:34:00;1.93;;;0.90;;
73919;SDS011;62266;53.348;-1.496;2023-04-25T07:36:44;2.90;;;1.10;;
73919;SDS011;62266;53.348;-1.496;2023-04-25T07:39:28;6.00;;;1.67;;
73919;SDS011;62266;53.348;-1.496;2023-04-25T07:42:12;2.97;;;1.05;;
73919;SDS011;62266;53.348;-1.496;2023-04-25T07:44:57;5.03;;;1.65;;
73919;SDS011;62266;53.348;-1.496;2023-04-25T07:47:41;3.27;;;1.33;;
73919;SDS011;62266;53.348;-1.496;2023-04-25T07:50:25;2.50;;;1.00;;
73919;SDS011;62266;53.348;-1.496;2023-04-25T07:53:09;4.25;;;1.45;;
73919;SDS011;62266;53.348;-1.496;2023-04-25T07:55:53;3.25;;;1.00;;
73919;SDS011;62266;53.348;-1.496;2023-04-25T07:58:37;4.50;;;1.35;;
73919;SDS011;62266;53.348;-1.496;2023-04-25T08:01:21;2.50;;;1.10;;
73919;SDS011;62266;53.348;-1.496;2023-04-25T08:04:05;2.53;;;0.98;;
73919;SDS011;62266;53.348;-1.496;2023-04-25T08:06:49;4.30;;;1.13;;
73919;SDS011;62266;53.348;-1.496;2023-04-25T08:09:33;2.33;;;1.02;;
73919;SDS011;62266;53.348;-1.496;2023-04-25T08:12:19;3.08;;;1.25;;
73919;SDS011;62266;53.348;-1.496;2023-04-25T08:15:03;3.43;;;1.47;;
73919;SDS011;62266;53.348;-1.496;2023-04-25T08:17:49;6.07;;;1.40;;
73919;SDS011;62266;53.348;-1.496;2023-04-25T08:20:33;5.38;;;1.00;;
73919;SDS011;62266;53.348;-1.496;2023-04-25T08:23:17;3.65;;;1.05;;
73919;SDS011;62266;53.348;-1.496;2023-04-25T08:26:01;3.38;;;1.20;;
73919;SDS011;62266;53.348;-1.496;2023-04-25T08:28:46;3.77;;;1.10;;
73919;SDS011;62266;53.348;-1.496;2023-04-25T08:31:30;2.58;;;1.08;;
73919;SDS011;62266;53.348;-1.496;2023-04-25T08:34:14;4.95;;;1.20;;
73919;SDS011;62266;53.348;-1.496;2023-04-25T08:36:59;3.85;;;1.10;;
73919;SDS011;62266;53.348;-1.496;2023-04-25T08:39:43;2.67;;;1.10;;
73919;SDS011;62266;53.348;-1.496;2023-04-25T08:42:28;3.33;;;1.07;;
73919;SDS011;62266;53.348;-1.496;2023-04-25T08:45:14;2.63;;;1.10;;
73919;SDS011;62266;53.348;-1.496;2023-04-25T08:47:58;3.90;;;1.02;;
73919;SDS011;62266;53.348;-1.496;2023-04-25T08:50:51;1.63;;;1.00;;
73919;SDS011;62266;53.348;-1.496;2023-04-25T08:53:37;3.08;;;1.35;;
73919;SDS011;62266;53.348;-1.496;2023-04-25T08:56:20;3.13;;;1.17;;
73919;SDS011;62266;53.348;-1.496;2023-04-25T08:59:06;2.17;;;1.30;;
73919;SDS011;62266;53.348;-1.496;2023-04-25T09:01:51;4.47;;;1.13;;
73919;SDS011;62266;53.348;-1.496;2023-04-25T09:04:35;4.72;;;1.30;;
73919;SDS011;62266;53.348;-1.496;2023-04-25T09:07:19;2.20;;;1.15;;
73919;SDS011;62266;53.348;-1.496;2023-04-25T09:10:05;4.93;;;1.57;;
73919;SDS011;62266;53.348;-1.496;2023-04-25T09:15:55;4.78;;;1.38;;
73919;SDS011;62266;53.348;-1.496;2023-04-25T09:18:40;3.65;;;1.40;;
73919;SDS011;62266;53.348;-1.496;2023-04-25T09:21:24;2.75;;;1.30;;
73919;SDS011;62266;53.348;-1.496;2023-04-25T09:24:10;4.90;;;1.33;;
73919;SDS011;62266;53.348;-1.496;2023-04-25T09:26:54;2.80;;;1.20;;
73919;SDS011;62266;53.348;-1.496;2023-04-25T09:29:38;3.78;;;1.10;;
73919;SDS011;62266;53.348;-1.496;2023-04-25T09:32:24;3.10;;;1.00;;
73919;SDS011;62266;53.348;-1.496;2023-04-25T09:35:08;2.60;;;1.15;;
73919;SDS011;62266;53.348;-1.496;2023-04-25T09:37:53;3.33;;;1.47;;
73919;SDS011;62266;53.348;-1.496;2023-04-25T09:40:41;4.88;;;1.30;;
73919;SDS011;62266;53.348;-1.496;2023-04-25T09:43:26;2.58;;;1.30;;
73919;SDS011;62266;53.348;-1.496;2023-04-25T09:46:11;3.28;;;1.10;;
73919;SDS011;62266;53.348;-1.496;2023-04-25T09:48:55;1.77;;;1.20;;
73919;SDS011;62266;53.348;-1.496;2023-04-25T09:51:40;2.33;;;0.90;;
73919;SDS011;62266;53.348;-1.496;2023-04-25T09:54:27;5.63;;;1.42;;
73919;SDS011;62266;53.348;-1.496;2023-04-25T09:59:56;1.73;;;1.05;;
73919;SDS011;62266;53.348;-1.496;2023-04-25T10:02:42;5.43;;;1.50;;
73919;SDS011;62266;53.348;-1.496;2023-04-25T10:05:27;4.27;;;1.40;;
73919;SDS011;62266;53.348;-1.496;2023-04-25T10:08:13;3.05;;;1.42;;
73919;SDS011;62266;53.348;-1.496;2023-04-25T10:11:07;2.85;;;1.30;;
73919;SDS011;62266;53.348;-1.496;2023-04-25T10:13:52;2.92;;;1.40;;
73919;SDS011;62266;53.348;-1.496;2023-04-25T10:16:36;4.57;;;1.30;;
73919;SDS011;62266;53.348;-1.496;2023-04-25T10:19:21;2.40;;;1.33;;
73919;SDS011;62266;53.348;-1.496;2023-04-25T10:22:07;2.95;;;1.30;;
73919;SDS011;62266;53.348;-1.496;2023-04-25T10:24:52;4.38;;;1.60;;
73919;SDS011;62266;53.348;-1.496;2023-04-25T10:27:38;2.90;;;1.00;;
73919;SDS011;62266;53.348;-1.496;2023-04-25T10:30:23;3.25;;;1.10;;
73919;SDS011;62266;53.348;-1.496;2023-04-25T10:33:17;3.33;;;1.20;;
73919;SDS011;62266;53.348;-1.496;2023-04-25T10:36:17;2.55;;;1.00;;
73919;SDS011;62266;53.348;-1.496;2023-04-25T10:39:03;2.33;;;1.10;;
73919;SDS011;62266;53.348;-1.496;2023-04-25T10:41:58;3.45;;;1.40;;
73919;SDS011;62266;53.348;-1.496;2023-04-25T10:44:47;3.80;;;1.40;;
73919;SDS011;62266;53.348;-1.496;2023-04-25T10:47:53;4.37;;;1.23;;
73919;SDS011;62266;53.348;-1.496;2023-04-25T10:50:38;1.63;;;1.10;;
73919;SDS011;62266;53.348;-1.496;2023-04-25T10:53:24;3.80;;;1.40;;
73919;SDS011;62266;53.348;-1.496;2023-04-25T11:02:00;3.30;;;1.20;;
73919;SDS011;62266;53.348;-1.496;2023-04-25T11:04:56;4.30;;;1.50;;
73919;SDS011;62266;53.348;-1.496;2023-04-25T11:07:52;2.08;;;1.40;;
73919;SDS011;62266;53.348;-1.496;2023-04-25T11:10:40;5.25;;;1.80;;
73919;SDS011;62266;53.348;-1.496;2023-04-25T11:13:28;4.22;;;1.48;;
73919;SDS011;62266;53.348;-1.496;2023-04-25T11:16:13;4.20;;;1.57;;
73919;SDS011;62266;53.348;-1.496;2023-04-25T11:18:58;3.83;;;1.70;;
73919;SDS011;62266;53.348;-1.496;2023-04-25T11:21:42;2.83;;;1.50;;
73919;SDS011;62266;53.348;-1.496;2023-04-25T11:24:27;3.75;;;1.80;;
73919;SDS011;62266;53.348;-1.496;2023-04-25T11:27:11;4.85;;;1.60;;
73919;SDS011;62266;53.348;-1.496;2023-04-25T11:29:56;3.93;;;2.00;;
73919;SDS011;62266;53.348;-1.496;2023-04-25T11:32:40;4.00;;;2.33;;
73919;SDS011;62266;53.348;-1.496;2023-04-25T11:35:25;4.55;;;2.17;;
73919;SDS011;62266;53.348;-1.496;2023-04-25T11:38:10;4.45;;;1.77;;
73919;SDS011;62266;53.348;-1.496;2023-04-25T11:40:55;6.20;;;2.00;;
73919;SDS011;62266;53.348;-1.496;2023-04-25T11:43:39;5.47;;;1.70;;
73919;SDS011;62266;53.348;-1.496;2023-04-25T11:46:23;4.85;;;1.85;;
73919;SDS011;62266;53.348;-1.496;2023-04-25T11:49:07;2.95;;;1.45;;
73919;SDS011;62266;53.348;-1.496;2023-04-25T11:51:51;3.10;;;1.40;;
73919;SDS011;62266;53.348;-1.496;2023-04-25T11:54:36;4.10;;;1.33;;
73919;SDS011;62266;53.348;-1.496;2023-04-25T11:57:20;4.57;;;2.00;;
73919;SDS011;62266;53.348;-1.496;2023-04-25T12:00:11;4.47;;;1.88;;
73919;SDS011;62266;53.348;-1.496;2023-04-25T12:02:56;5.60;;;2.13;;
73919;SDS011;62266;53.348;-1.496;2023-04-25T12:05:44;6.05;;;2.10;;
73919;SDS011;62266;53.348;-1.496;2023-04-25T12:08:29;5.25;;;1.80;;
73919;SDS011;62266;53.348;-1.496;2023-04-25T12:11:31;3.73;;;2.00;;
73919;SDS011;62266;53.348;-1.496;2023-04-25T12:14:20;4.05;;;2.55;;
73919;SDS011;62266;53.348;-1.496;2023-04-25T12:17:06;5.22;;;1.88;;
73919;SDS011;62266;53.348;-1.496;2023-04-25T12:19:51;6.60;;;2.17;;
73919;SDS011;62266;53.348;-1.496;2023-04-25T12:22:35;8.60;;;2.05;;
73919;SDS011;62266;53.348;-1.496;2023-04-25T12:25:36;5.37;;;2.67;;
73919;SDS011;62266;53.348;-1.496;2023-04-25T12:28:23;3.17;;;1.90;;
73919;SDS011;62266;53.348;-1.496;2023-04-25T12:31:08;5.03;;;2.30;;
73919;SDS011;62266;53.348;-1.496;2023-04-25T12:33:52;5.57;;;1.95;;
73919;SDS011;62266;53.348;-1.496;2023-04-25T12:36:37;4.53;;;2.17;;
73919;SDS011;62266;53.348;-1.496;2023-04-25T12:39:21;3.90;;;2.20;;
73919;SDS011;62266;53.348;-1.496;2023-04-25T12:42:07;5.00;;;2.10;;
73919;SDS011;62266;53.348;-1.496;2023-04-25T12:44:55;4.22;;;2.22;;
73919;SDS011;62266;53.348;-1.496;2023-04-25T12:47:39;3.58;;;2.00;;
73919;SDS011;62266;53.348;-1.496;2023-04-25T12:50:23;4.13;;;2.20;;
73919;SDS011;62266;53.348;-1.496;2023-04-25T12:53:07;4.47;;;2.40;;
73919;SDS011;62266;53.348;-1.496;2023-04-25T12:55:51;4.13;;;2.10;;
73919;SDS011;62266;53.348;-1.496;2023-04-25T12:58:35;3.97;;;2.13;;
73919;SDS011;62266;53.348;-1.496;2023-04-25T13:01:19;4.15;;;2.00;;
73919;SDS011;62266;53.348;-1.496;2023-04-25T13:04:04;4.93;;;2.20;;
73919;SDS011;62266;53.348;-1.496;2023-04-25T13:06:48;3.50;;;2.27;;
73919;SDS011;62266;53.348;-1.496;2023-04-25T13:09:32;4.80;;;2.10;;
73919;SDS011;62266;53.348;-1.496;2023-04-25T13:12:17;3.28;;;2.10;;
73919;SDS011;62266;53.348;-1.496;2023-04-25T13:15:01;4.60;;;2.08;;
73919;SDS011;62266;53.348;-1.496;2023-04-25T13:17:45;6.03;;;2.00;;
73919;SDS011;62266;53.348;-1.496;2023-04-25T13:20:29;4.60;;;2.13;;
73919;SDS011;62266;53.348;-1.496;2023-04-25T13:23:13;4.82;;;2.30;;
73919;SDS011;62266;53.348;-1.496;2023-04-25T13:25:57;6.60;;;2.20;;
73919;SDS011;62266;53.348;-1.496;2023-04-25T13:28:41;4.53;;;2.10;;
73919;SDS011;62266;53.348;-1.496;2023-04-25T13:31:25;4.28;;;2.13;;
73919;SDS011;62266;53.348;-1.496;2023-04-25T13:34:10;4.57;;;2.00;;
73919;SDS011;62266;53.348;-1.496;2023-04-25T13:36:55;3.05;;;1.88;;
73919;SDS011;62266;53.348;-1.496;2023-04-25T13:39:39;4.40;;;1.83;;
73919;SDS011;62266;53.348;-1.496;2023-04-25T13:42:23;2.38;;;1.65;;
73919;SDS011;62266;53.348;-1.496;2023-04-25T13:45:07;3.35;;;1.88;;
73919;SDS011;62266;53.348;-1.496;2023-04-25T13:47:52;3.10;;;2.13;;
73919;SDS011;62266;53.348;-1.496;2023-04-25T13:50:36;3.60;;;2.08;;
73919;SDS011;62266;53.348;-1.496;2023-04-25T13:53:20;4.32;;;2.22;;
73919;SDS011;62266;53.348;-1.496;2023-04-25T13:56:04;6.22;;;2.80;;
73919;SDS011;62266;53.348;-1.496;2023-04-25T13:58:52;3.00;;;1.67;;
73919;SDS011;62266;53.348;-1.496;2023-04-25T14:01:36;4.83;;;2.20;;
73919;SDS011;62266;53.348;-1.496;2023-04-25T14:04:20;3.10;;;1.83;;
73919;SDS011;62266;53.348;-1.496;2023-04-25T14:07:04;5.57;;;1.80;;
73919;SDS011;62266;53.348;-1.496;2023-04-25T14:09:48;2.97;;;1.70;;
73919;SDS011;62266;53.348;-1.496;2023-04-25T14:12:32;3.88;;;1.83;;
73919;SDS011;62266;53.348;-1.496;2023-04-25T14:15:16;2.67;;;1.83;;
73919;SDS011;62266;53.348;-1.496;2023-04-25T14:18:00;4.10;;;1.90;;
73919;SDS011;62266;53.348;-1.496;2023-04-25T14:20:45;3.83;;;1.88;;
73919;SDS011;62266;53.348;-1.496;2023-04-25T14:23:30;4.43;;;1.83;;
73919;SDS011;62266;53.348;-1.496;2023-04-25T14:26:14;3.92;;;2.05;;
73919;SDS011;62266;53.348;-1.496;2023-04-25T14:28:58;3.40;;;2.00;;
73919;SDS011;62266;53.348;-1.496;2023-04-25T14:31:42;2.90;;;2.08;;
73919;SDS011;62266;53.348;-1.496;2023-04-25T14:34:26;2.90;;;1.67;;
73919;SDS011;62266;53.348;-1.496;2023-04-25T14:37:11;4.95;;;2.00;;
73919;SDS011;62266;53.348;-1.496;2023-04-25T14:39:55;3.55;;;2.05;;
73919;SDS011;62266;53.348;-1.496;2023-04-25T14:42:39;3.53;;;1.90;;
73919;SDS011;62266;53.348;-1.496;2023-04-25T14:45:24;3.03;;;1.75;;
73919;SDS011;62266;53.348;-1.496;2023-04-25T14:48:08;3.65;;;2.00;;
73919;SDS011;62266;53.348;-1.496;2023-04-25T14:50:53;3.75;;;2.00;;
73919;SDS011;62266;53.348;-1.496;2023-04-25T14:53:38;2.65;;;1.88;;
73919;SDS011;62266;53.348;-1.496;2023-04-25T14:56:23;2.53;;;1.70;;
73919;SDS011;62266;53.348;-1.496;2023-04-25T14:59:07;4.00;;;2.08;;
73919;SDS011;62266;53.348;-1.496;2023-04-25T15:01:52;6.18;;;2.05;;
73919;SDS011;62266;53.348;-1.496;2023-04-25T15:04:37;6.40;;;2.13;;
73919;SDS011;62266;53.348;-1.496;2023-04-25T15:10:13;4.57;;;1.57;;
73919;SDS011;62266;53.348;-1.496;2023-04-25T15:12:59;3.83;;;1.50;;
73919;SDS011;62266;53.348;-1.496;2023-04-25T15:15:50;4.15;;;2.05;;
73919;SDS011;62266;53.348;-1.496;2023-04-25T15:18:43;3.47;;;1.95;;
73919;SDS011;62266;53.348;-1.496;2023-04-25T15:21:31;3.95;;;1.80;;
73919;SDS011;62266;53.348;-1.496;2023-04-25T15:24:16;2.37;;;1.80;;
73919;SDS011;62266;53.348;-1.496;2023-04-25T15:27:01;2.75;;;1.60;;
73919;SDS011;62266;53.348;-1.496;2023-04-25T15:29:46;3.85;;;1.85;;
73919;SDS011;62266;53.348;-1.496;2023-04-25T15:32:31;3.60;;;1.90;;
73919;SDS011;62266;53.348;-1.496;2023-04-25T15:35:15;5.88;;;1.95;;
73919;SDS011;62266;53.348;-1.496;2023-04-25T15:37:59;3.30;;;1.70;;
73919;SDS011;62266;53.348;-1.496;2023-04-25T15:40:44;4.20;;;1.58;;
73919;SDS011;62266;53.348;-1.496;2023-04-25T15:43:28;2.40;;;1.75;;
73919;SDS011;62266;53.348;-1.496;2023-04-25T15:46:14;3.25;;;1.70;;
73919;SDS011;62266;53.348;-1.496;2023-04-25T15:48:58;3.97;;;1.60;;
73919;SDS011;62266;53.348;-1.496;2023-04-25T15:51:42;3.67;;;1.60;;
73919;SDS011;62266;53.348;-1.496;2023-04-25T15:54:28;2.55;;;1.80;;
73919;SDS011;62266;53.348;-1.496;2023-04-25T15:57:13;2.42;;;1.70;;
73919;SDS011;62266;53.348;-1.496;2023-04-25T15:59:58;8.07;;;2.17;;
73919;SDS011;62266;53.348;-1.496;2023-04-25T16:02:43;2.58;;;1.65;;
73919;SDS011;62266;53.348;-1.496;2023-04-25T16:05:28;3.03;;;1.90;;
73919;SDS011;62266;53.348;-1.496;2023-04-25T16:08:13;3.40;;;1.70;;
73919;SDS011;62266;53.348;-1.496;2023-04-25T16:10:57;2.65;;;1.30;;
73919;SDS011;62266;53.348;-1.496;2023-04-25T16:13:42;6.15;;;1.73;;
73919;SDS011;62266;53.348;-1.496;2023-04-25T16:16:26;2.67;;;1.60;;
73919;SDS011;62266;53.348;-1.496;2023-04-25T16:19:11;2.83;;;1.80;;
73919;SDS011;62266;53.348;-1.496;2023-04-25T16:21:56;2.88;;;1.50;;
73919;SDS011;62266;53.348;-1.496;2023-04-25T16:24:40;2.03;;;1.40;;
73919;SDS011;62266;53.348;-1.496;2023-04-25T16:27:26;3.40;;;1.75;;
73919;SDS011;62266;53.348;-1.496;2023-04-25T16:30:10;3.17;;;1.90;;
73919;SDS011;62266;53.348;-1.496;2023-04-25T16:32:55;3.17;;;1.97;;